sensor_id;sensor_type;location;lat;lon;timestamp;temperature;humidity
24226;DHT22;51462;51.422;5.514;2022-08-19T00:00:45;21.00;99.90
24226;DHT22;51462;51.422;5.514;2022-08-19T00:03:11;21.00;99.90
24226;DHT22;51462;51.422;5.514;2022-08-19T00:05:36;20.90;99.90
24226;DHT22;51462;51.422;5.514;2022-08-19T00:08:03;20.90;99.90
24226;DHT22;51462;51.422;5.514;2022-08-19T00:10:28;20.60;99.90
24226;DHT22;51462;51.422;5.514;2022-08-19T00:12:54;20.50;99.90
24226;DHT22;51462;51.422;5.514;2022-08-19T00:15:21;20.40;99.90
24226;DHT22;51462;51.422;5.514;2022-08-19T00:17:47;20.20;99.90
24226;DHT22;51462;51.422;5.514;2022-08-19T00:20:16;20.10;99.90
24226;DHT22;51462;51.422;5.514;2022-08-19T00:22:44;20.00;99.90
24226;DHT22;51462;51.422;5.514;2022-08-19T00:25:10;20.00;99.90
24226;DHT22;51462;51.422;5.514;2022-08-19T00:27:36;20.10;99.90
24226;DHT22;51462;51.422;5.514;2022-08-19T00:30:03;20.20;99.90
24226;DHT22;51462;51.422;5.514;2022-08-19T00:32:30;20.10;99.90
24226;DHT22;51462;51.422;5.514;2022-08-19T00:34:56;20.10;99.90
24226;DHT22;51462;51.422;5.514;2022-08-19T00:37:23;20.10;99.90
24226;DHT22;51462;51.422;5.514;2022-08-19T00:39:51;20.10;99.90
24226;DHT22;51462;51.422;5.514;2022-08-19T00:42:18;20.00;99.90
24226;DHT22;51462;51.422;5.514;2022-08-19T00:44:44;20.10;99.90
24226;DHT22;51462;51.422;5.514;2022-08-19T00:47:10;20.10;99.90
24226;DHT22;51462;51.422;5.514;2022-08-19T00:50:01;20.00;99.90
24226;DHT22;51462;51.422;5.514;2022-08-19T00:52:38;19.90;99.90
24226;DHT22;51462;51.422;5.514;2022-08-19T00:55:07;19.70;99.90
24226;DHT22;51462;51.422;5.514;2022-08-19T00:57:39;19.60;99.90
24226;DHT22;51462;51.422;5.514;2022-08-19T01:00:09;19.40;99.90
24226;DHT22;51462;51.422;5.514;2022-08-19T01:02:37;19.20;99.90
24226;DHT22;51462;51.422;5.514;2022-08-19T01:05:06;19.10;99.90
24226;DHT22;51462;51.422;5.514;2022-08-19T01:07:33;19.30;99.90
24226;DHT22;51462;51.422;5.514;2022-08-19T01:10:00;19.30;99.90
24226;DHT22;51462;51.422;5.514;2022-08-19T01:12:25;19.40;99.90
24226;DHT22;51462;51.422;5.514;2022-08-19T01:14:51;19.40;99.90
24226;DHT22;51462;51.422;5.514;2022-08-19T01:17:18;19.40;99.90
24226;DHT22;51462;51.422;5.514;2022-08-19T01:19:45;19.60;99.90
24226;DHT22;51462;51.422;5.514;2022-08-19T01:24:48;19.80;99.90
24226;DHT22;51462;51.422;5.514;2022-08-19T01:27:14;19.90;99.90
24226;DHT22;51462;51.422;5.514;2022-08-19T01:29:41;19.90;99.90
24226;DHT22;51462;51.422;5.514;2022-08-19T01:32:09;19.80;99.90
24226;DHT22;51462;51.422;5.514;2022-08-19T01:34:37;19.80;99.90
24226;DHT22;51462;51.422;5.514;2022-08-19T01:37:07;19.70;99.90
24226;DHT22;51462;51.422;5.514;2022-08-19T01:39:34;19.60;99.90
24226;DHT22;51462;51.422;5.514;2022-08-19T01:41:59;19.50;99.90
24226;DHT22;51462;51.422;5.514;2022-08-19T01:44:28;19.50;99.90
24226;DHT22;51462;51.422;5.514;2022-08-19T01:46:54;19.50;99.90
24226;DHT22;51462;51.422;5.514;2022-08-19T01:49:22;19.70;99.90
24226;DHT22;51462;51.422;5.514;2022-08-19T01:51:49;19.70;99.90
24226;DHT22;51462;51.422;5.514;2022-08-19T01:54:17;19.80;99.90
24226;DHT22;51462;51.422;5.514;2022-08-19T01:56:43;20.10;99.90
24226;DHT22;51462;51.422;5.514;2022-08-19T01:59:13;20.40;99.90
24226;DHT22;51462;51.422;5.514;2022-08-19T02:01:39;20.40;99.90
24226;DHT22;51462;51.422;5.514;2022-08-19T02:04:05;20.30;99.90
24226;DHT22;51462;51.422;5.514;2022-08-19T02:06:31;20.60;99.90
24226;DHT22;51462;51.422;5.514;2022-08-19T02:08:57;20.70;99.90
24226;DHT22;51462;51.422;5.514;2022-08-19T02:11:26;20.60;99.90
24226;DHT22;51462;51.422;5.514;2022-08-19T02:13:53;20.60;99.90
24226;DHT22;51462;51.422;5.514;2022-08-19T02:16:19;20.00;99.90
24226;DHT22;51462;51.422;5.514;2022-08-19T02:18:46;20.20;99.90
24226;DHT22;51462;51.422;5.514;2022-08-19T02:21:17;20.10;99.90
24226;DHT22;51462;51.422;5.514;2022-08-19T02:23:43;19.70;99.90
24226;DHT22;51462;51.422;5.514;2022-08-19T02:26:10;19.40;99.90
24226;DHT22;51462;51.422;5.514;2022-08-19T02:28:36;19.10;99.90
24226;DHT22;51462;51.422;5.514;2022-08-19T02:31:02;18.80;99.90
24226;DHT22;51462;51.422;5.514;2022-08-19T02:33:28;18.80;99.90
24226;DHT22;51462;51.422;5.514;2022-08-19T02:35:53;18.80;99.90
24226;DHT22;51462;51.422;5.514;2022-08-19T02:38:19;18.80;99.90
24226;DHT22;51462;51.422;5.514;2022-08-19T02:41:00;18.70;99.90
24226;DHT22;51462;51.422;5.514;2022-08-19T02:43:26;18.80;99.90
24226;DHT22;51462;51.422;5.514;2022-08-19T02:45:53;18.90;99.90
24226;DHT22;51462;51.422;5.514;2022-08-19T02:48:21;18.80;99.90
24226;DHT22;51462;51.422;5.514;2022-08-19T02:50:48;18.90;99.90
24226;DHT22;51462;51.422;5.514;2022-08-19T02:53:15;18.80;99.90
24226;DHT22;51462;51.422;5.514;2022-08-19T02:55:46;18.70;99.90
24226;DHT22;51462;51.422;5.514;2022-08-19T02:58:13;18.90;99.90
24226;DHT22;51462;51.422;5.514;2022-08-19T03:00:47;18.90;99.90
24226;DHT22;51462;51.422;5.514;2022-08-19T03:03:13;19.10;99.90
24226;DHT22;51462;51.422;5.514;2022-08-19T03:05:39;19.10;99.90
24226;DHT22;51462;51.422;5.514;2022-08-19T03:08:07;19.10;99.90
24226;DHT22;51462;51.422;5.514;2022-08-19T03:10:33;18.90;99.90
24226;DHT22;51462;51.422;5.514;2022-08-19T03:12:58;18.80;99.90
24226;DHT22;51462;51.422;5.514;2022-08-19T03:15:24;18.80;99.90
24226;DHT22;51462;51.422;5.514;2022-08-19T03:17:50;18.70;99.90
24226;DHT22;51462;51.422;5.514;2022-08-19T03:20:15;18.70;99.90
24226;DHT22;51462;51.422;5.514;2022-08-19T03:22:41;18.60;99.90
24226;DHT22;51462;51.422;5.514;2022-08-19T03:25:06;18.60;99.90
24226;DHT22;51462;51.422;5.514;2022-08-19T03:27:32;18.50;99.90
24226;DHT22;51462;51.422;5.514;2022-08-19T03:29:58;18.40;99.90
24226;DHT22;51462;51.422;5.514;2022-08-19T03:32:24;18.40;99.90
24226;DHT22;51462;51.422;5.514;2022-08-19T03:34:50;18.40;99.90
24226;DHT22;51462;51.422;5.514;2022-08-19T03:37:16;18.40;99.90
24226;DHT22;51462;51.422;5.514;2022-08-19T03:39:41;18.40;99.90
24226;DHT22;51462;51.422;5.514;2022-08-19T03:42:08;18.40;99.90
24226;DHT22;51462;51.422;5.514;2022-08-19T03:44:34;18.50;99.90
24226;DHT22;51462;51.422;5.514;2022-08-19T03:47:01;18.60;99.90
24226;DHT22;51462;51.422;5.514;2022-08-19T03:49:28;18.60;99.90
24226;DHT22;51462;51.422;5.514;2022-08-19T03:51:56;18.50;99.90
24226;DHT22;51462;51.422;5.514;2022-08-19T03:54:24;18.60;99.90
24226;DHT22;51462;51.422;5.514;2022-08-19T03:56:51;18.60;99.90
24226;DHT22;51462;51.422;5.514;2022-08-19T03:59:23;18.50;99.90
24226;DHT22;51462;51.422;5.514;2022-08-19T04:01:50;18.70;99.90
24226;DHT22;51462;51.422;5.514;2022-08-19T04:04:16;18.90;99.90
24226;DHT22;51462;51.422;5.514;2022-08-19T04:06:43;19.00;99.90
24226;DHT22;51462;51.422;5.514;2022-08-19T04:09:10;18.70;99.90
24226;DHT22;51462;51.422;5.514;2022-08-19T04:11:50;18.70;99.90
24226;DHT22;51462;51.422;5.514;2022-08-19T04:14:22;19.40;99.90
24226;DHT22;51462;51.422;5.514;2022-08-19T04:16:49;19.80;99.90
24226;DHT22;51462;51.422;5.514;2022-08-19T04:19:17;20.00;99.90
24226;DHT22;51462;51.422;5.514;2022-08-19T04:21:44;19.70;99.90
24226;DHT22;51462;51.422;5.514;2022-08-19T04:24:12;19.60;99.90
24226;DHT22;51462;51.422;5.514;2022-08-19T04:26:38;19.80;99.90
24226;DHT22;51462;51.422;5.514;2022-08-19T04:29:07;19.70;99.90
24226;DHT22;51462;51.422;5.514;2022-08-19T04:31:33;19.40;99.90
24226;DHT22;51462;51.422;5.514;2022-08-19T04:34:05;18.90;99.90
24226;DHT22;51462;51.422;5.514;2022-08-19T04:36:34;18.90;99.90
24226;DHT22;51462;51.422;5.514;2022-08-19T04:39:06;18.80;99.90
24226;DHT22;51462;51.422;5.514;2022-08-19T04:41:32;18.90;99.90
24226;DHT22;51462;51.422;5.514;2022-08-19T04:44:17;18.80;99.90
24226;DHT22;51462;51.422;5.514;2022-08-19T04:46:44;18.40;99.90
24226;DHT22;51462;51.422;5.514;2022-08-19T04:49:09;18.10;99.90
24226;DHT22;51462;51.422;5.514;2022-08-19T04:51:36;18.00;99.90
24226;DHT22;51462;51.422;5.514;2022-08-19T04:54:03;18.10;99.90
24226;DHT22;51462;51.422;5.514;2022-08-19T04:56:28;18.20;99.90
24226;DHT22;51462;51.422;5.514;2022-08-19T04:58:55;18.40;99.90
24226;DHT22;51462;51.422;5.514;2022-08-19T05:01:28;18.50;99.90
24226;DHT22;51462;51.422;5.514;2022-08-19T05:03:55;18.40;99.90
24226;DHT22;51462;51.422;5.514;2022-08-19T05:06:22;18.00;99.90
24226;DHT22;51462;51.422;5.514;2022-08-19T05:08:49;18.10;99.90
24226;DHT22;51462;51.422;5.514;2022-08-19T05:11:22;18.10;99.90
24226;DHT22;51462;51.422;5.514;2022-08-19T05:13:48;18.30;99.90
24226;DHT22;51462;51.422;5.514;2022-08-19T05:16:17;18.30;99.90
24226;DHT22;51462;51.422;5.514;2022-08-19T05:18:43;18.50;99.90
24226;DHT22;51462;51.422;5.514;2022-08-19T05:21:28;18.60;99.90
24226;DHT22;51462;51.422;5.514;2022-08-19T05:24:12;18.30;99.90
24226;DHT22;51462;51.422;5.514;2022-08-19T05:26:41;18.20;99.90
24226;DHT22;51462;51.422;5.514;2022-08-19T05:29:09;18.10;99.90
24226;DHT22;51462;51.422;5.514;2022-08-19T05:31:36;18.00;99.90
24226;DHT22;51462;51.422;5.514;2022-08-19T05:34:04;18.40;99.90
24226;DHT22;51462;51.422;5.514;2022-08-19T05:36:35;18.40;99.90
24226;DHT22;51462;51.422;5.514;2022-08-19T05:39:02;18.50;99.90
24226;DHT22;51462;51.422;5.514;2022-08-19T05:41:28;18.70;99.90
24226;DHT22;51462;51.422;5.514;2022-08-19T05:43:58;19.10;99.90
24226;DHT22;51462;51.422;5.514;2022-08-19T05:46:26;19.10;99.90
24226;DHT22;51462;51.422;5.514;2022-08-19T05:48:51;18.90;99.90
24226;DHT22;51462;51.422;5.514;2022-08-19T05:51:17;18.80;99.90
24226;DHT22;51462;51.422;5.514;2022-08-19T05:53:43;18.70;99.90
24226;DHT22;51462;51.422;5.514;2022-08-19T05:56:14;18.80;99.90
24226;DHT22;51462;51.422;5.514;2022-08-19T05:58:42;18.70;99.90
24226;DHT22;51462;51.422;5.514;2022-08-19T06:01:12;18.50;99.90
24226;DHT22;51462;51.422;5.514;2022-08-19T06:03:37;18.30;99.90
24226;DHT22;51462;51.422;5.514;2022-08-19T06:06:05;18.40;99.90
24226;DHT22;51462;51.422;5.514;2022-08-19T06:08:31;18.60;99.90
24226;DHT22;51462;51.422;5.514;2022-08-19T06:10:58;18.60;99.90
24226;DHT22;51462;51.422;5.514;2022-08-19T06:13:36;18.80;99.90
24226;DHT22;51462;51.422;5.514;2022-08-19T06:16:01;18.80;99.90
24226;DHT22;51462;51.422;5.514;2022-08-19T06:18:27;18.80;99.90
24226;DHT22;51462;51.422;5.514;2022-08-19T06:20:53;18.80;99.90
24226;DHT22;51462;51.422;5.514;2022-08-19T06:23:18;18.90;99.90
24226;DHT22;51462;51.422;5.514;2022-08-19T06:25:45;19.10;99.90
24226;DHT22;51462;51.422;5.514;2022-08-19T06:28:11;18.90;99.90
24226;DHT22;51462;51.422;5.514;2022-08-19T06:30:37;18.70;99.90
24226;DHT22;51462;51.422;5.514;2022-08-19T06:33:02;18.70;99.90
24226;DHT22;51462;51.422;5.514;2022-08-19T06:35:28;18.80;99.90
24226;DHT22;51462;51.422;5.514;2022-08-19T06:37:54;18.60;99.90
24226;DHT22;51462;51.422;5.514;2022-08-19T06:40:20;18.80;99.90
24226;DHT22;51462;51.422;5.514;2022-08-19T06:42:46;19.00;99.90
24226;DHT22;51462;51.422;5.514;2022-08-19T06:45:11;19.10;99.90
24226;DHT22;51462;51.422;5.514;2022-08-19T06:47:37;19.10;99.90
24226;DHT22;51462;51.422;5.514;2022-08-19T06:50:03;18.90;99.90
24226;DHT22;51462;51.422;5.514;2022-08-19T06:52:34;19.00;99.90
24226;DHT22;51462;51.422;5.514;2022-08-19T06:55:00;19.10;99.90
24226;DHT22;51462;51.422;5.514;2022-08-19T06:57:27;19.10;99.90
24226;DHT22;51462;51.422;5.514;2022-08-19T06:59:52;19.20;99.90
24226;DHT22;51462;51.422;5.514;2022-08-19T07:02:18;19.30;99.90
24226;DHT22;51462;51.422;5.514;2022-08-19T07:04:45;19.10;99.90
24226;DHT22;51462;51.422;5.514;2022-08-19T07:07:12;19.10;99.90
24226;DHT22;51462;51.422;5.514;2022-08-19T07:09:41;19.30;99.90
24226;DHT22;51462;51.422;5.514;2022-08-19T07:12:08;19.20;99.90
24226;DHT22;51462;51.422;5.514;2022-08-19T07:14:35;19.40;99.90
24226;DHT22;51462;51.422;5.514;2022-08-19T07:17:05;19.40;99.90
24226;DHT22;51462;51.422;5.514;2022-08-19T07:19:31;19.50;99.90
24226;DHT22;51462;51.422;5.514;2022-08-19T07:21:57;19.50;99.90
24226;DHT22;51462;51.422;5.514;2022-08-19T07:24:26;19.40;99.90
24226;DHT22;51462;51.422;5.514;2022-08-19T07:26:54;19.60;99.90
24226;DHT22;51462;51.422;5.514;2022-08-19T07:29:21;19.60;99.90
24226;DHT22;51462;51.422;5.514;2022-08-19T07:31:51;19.60;99.90
24226;DHT22;51462;51.422;5.514;2022-08-19T07:34:17;19.50;99.90
24226;DHT22;51462;51.422;5.514;2022-08-19T07:36:44;19.70;99.90
24226;DHT22;51462;51.422;5.514;2022-08-19T07:39:23;19.70;99.90
24226;DHT22;51462;51.422;5.514;2022-08-19T07:41:49;19.60;99.90
24226;DHT22;51462;51.422;5.514;2022-08-19T07:44:16;19.70;99.90
24226;DHT22;51462;51.422;5.514;2022-08-19T07:46:44;19.70;99.90
24226;DHT22;51462;51.422;5.514;2022-08-19T07:49:11;19.90;99.90
24226;DHT22;51462;51.422;5.514;2022-08-19T07:51:43;19.80;99.90
24226;DHT22;51462;51.422;5.514;2022-08-19T07:54:09;20.20;99.90
24226;DHT22;51462;51.422;5.514;2022-08-19T07:56:34;20.20;99.90
24226;DHT22;51462;51.422;5.514;2022-08-19T07:59:00;20.30;99.90
24226;DHT22;51462;51.422;5.514;2022-08-19T08:01:27;20.10;99.90
24226;DHT22;51462;51.422;5.514;2022-08-19T08:03:54;20.10;99.90
24226;DHT22;51462;51.422;5.514;2022-08-19T08:06:38;20.20;99.90
24226;DHT22;51462;51.422;5.514;2022-08-19T08:09:26;20.30;99.90
24226;DHT22;51462;51.422;5.514;2022-08-19T08:11:56;20.50;99.90
24226;DHT22;51462;51.422;5.514;2022-08-19T08:17:22;20.60;99.90
24226;DHT22;51462;51.422;5.514;2022-08-19T08:19:48;20.60;99.90
24226;DHT22;51462;51.422;5.514;2022-08-19T08:22:18;20.60;99.90
24226;DHT22;51462;51.422;5.514;2022-08-19T08:25:14;20.80;99.90
24226;DHT22;51462;51.422;5.514;2022-08-19T08:27:43;20.90;99.90
24226;DHT22;51462;51.422;5.514;2022-08-19T08:30:18;20.90;99.90
24226;DHT22;51462;51.422;5.514;2022-08-19T08:32:44;20.90;99.90
24226;DHT22;51462;51.422;5.514;2022-08-19T08:35:13;21.00;99.90
24226;DHT22;51462;51.422;5.514;2022-08-19T08:37:38;21.00;99.90
24226;DHT22;51462;51.422;5.514;2022-08-19T08:40:16;20.90;99.90
24226;DHT22;51462;51.422;5.514;2022-08-19T08:42:53;20.90;99.90
24226;DHT22;51462;51.422;5.514;2022-08-19T08:45:21;21.10;99.90
24226;DHT22;51462;51.422;5.514;2022-08-19T08:47:50;21.00;99.90
24226;DHT22;51462;51.422;5.514;2022-08-19T08:53:18;21.10;99.90
24226;DHT22;51462;51.422;5.514;2022-08-19T08:55:45;21.10;99.90
24226;DHT22;51462;51.422;5.514;2022-08-19T08:58:15;21.10;99.90
24226;DHT22;51462;51.422;5.514;2022-08-19T09:00:47;21.30;99.90
24226;DHT22;51462;51.422;5.514;2022-08-19T09:03:22;21.40;99.90
24226;DHT22;51462;51.422;5.514;2022-08-19T09:06:09;21.30;99.90
24226;DHT22;51462;51.422;5.514;2022-08-19T09:09:04;21.30;99.90
24226;DHT22;51462;51.422;5.514;2022-08-19T09:11:50;21.50;99.90
24226;DHT22;51462;51.422;5.514;2022-08-19T09:14:37;21.60;99.90
24226;DHT22;51462;51.422;5.514;2022-08-19T09:17:09;21.70;99.90
24226;DHT22;51462;51.422;5.514;2022-08-19T09:19:36;21.90;99.90
24226;DHT22;51462;51.422;5.514;2022-08-19T09:22:11;22.00;99.90
24226;DHT22;51462;51.422;5.514;2022-08-19T09:24:37;22.00;99.90
24226;DHT22;51462;51.422;5.514;2022-08-19T09:27:03;22.00;99.90
24226;DHT22;51462;51.422;5.514;2022-08-19T09:29:29;22.00;99.90
24226;DHT22;51462;51.422;5.514;2022-08-19T09:31:55;22.00;99.90
24226;DHT22;51462;51.422;5.514;2022-08-19T09:34:21;22.20;99.90
24226;DHT22;51462;51.422;5.514;2022-08-19T09:36:46;22.30;99.90
24226;DHT22;51462;51.422;5.514;2022-08-19T09:39:12;22.20;99.90
24226;DHT22;51462;51.422;5.514;2022-08-19T09:41:38;22.20;99.90
24226;DHT22;51462;51.422;5.514;2022-08-19T09:44:03;22.30;99.90
24226;DHT22;51462;51.422;5.514;2022-08-19T09:46:29;22.00;99.90
24226;DHT22;51462;51.422;5.514;2022-08-19T09:48:58;22.30;99.90
24226;DHT22;51462;51.422;5.514;2022-08-19T09:51:26;22.30;99.90
24226;DHT22;51462;51.422;5.514;2022-08-19T09:53:53;22.10;99.90
24226;DHT22;51462;51.422;5.514;2022-08-19T09:56:20;22.10;99.90
24226;DHT22;51462;51.422;5.514;2022-08-19T09:58:47;21.80;99.90
24226;DHT22;51462;51.422;5.514;2022-08-19T10:01:24;21.90;99.90
24226;DHT22;51462;51.422;5.514;2022-08-19T10:03:53;21.60;99.90
24226;DHT22;51462;51.422;5.514;2022-08-19T10:06:21;21.60;99.90
24226;DHT22;51462;51.422;5.514;2022-08-19T10:08:47;21.90;99.90
24226;DHT22;51462;51.422;5.514;2022-08-19T10:11:13;22.00;99.90
24226;DHT22;51462;51.422;5.514;2022-08-19T10:13:42;22.00;99.90
24226;DHT22;51462;51.422;5.514;2022-08-19T10:16:12;22.10;99.90
24226;DHT22;51462;51.422;5.514;2022-08-19T10:18:38;22.20;99.90
24226;DHT22;51462;51.422;5.514;2022-08-19T10:23:36;22.40;99.90
24226;DHT22;51462;51.422;5.514;2022-08-19T10:26:04;22.30;99.90
24226;DHT22;51462;51.422;5.514;2022-08-19T10:28:32;22.30;99.90
24226;DHT22;51462;51.422;5.514;2022-08-19T10:30:57;22.20;99.90
24226;DHT22;51462;51.422;5.514;2022-08-19T10:33:24;22.30;99.90
24226;DHT22;51462;51.422;5.514;2022-08-19T10:35:59;22.20;99.90
24226;DHT22;51462;51.422;5.514;2022-08-19T10:38:25;22.10;99.90
24226;DHT22;51462;51.422;5.514;2022-08-19T10:40:50;22.20;99.90
24226;DHT22;51462;51.422;5.514;2022-08-19T10:43:16;22.30;99.90
24226;DHT22;51462;51.422;5.514;2022-08-19T10:45:42;22.50;99.90
24226;DHT22;51462;51.422;5.514;2022-08-19T10:48:07;22.40;99.90
24226;DHT22;51462;51.422;5.514;2022-08-19T10:50:33;22.50;99.90
24226;DHT22;51462;51.422;5.514;2022-08-19T10:53:17;22.60;99.90
24226;DHT22;51462;51.422;5.514;2022-08-19T10:55:45;22.50;99.90
24226;DHT22;51462;51.422;5.514;2022-08-19T10:58:29;22.50;99.90
24226;DHT22;51462;51.422;5.514;2022-08-19T11:00:57;22.40;99.90
24226;DHT22;51462;51.422;5.514;2022-08-19T11:03:24;22.50;99.90
24226;DHT22;51462;51.422;5.514;2022-08-19T11:06:03;22.50;99.90
24226;DHT22;51462;51.422;5.514;2022-08-19T11:08:29;22.40;99.90
24226;DHT22;51462;51.422;5.514;2022-08-19T11:10:58;22.40;99.90
24226;DHT22;51462;51.422;5.514;2022-08-19T11:13:26;22.70;99.90
24226;DHT22;51462;51.422;5.514;2022-08-19T11:16:07;22.80;99.90
24226;DHT22;51462;51.422;5.514;2022-08-19T11:18:48;23.00;99.90
24226;DHT22;51462;51.422;5.514;2022-08-19T11:21:24;23.00;99.90
24226;DHT22;51462;51.422;5.514;2022-08-19T11:23:53;23.20;99.90
24226;DHT22;51462;51.422;5.514;2022-08-19T11:26:20;23.30;99.90
24226;DHT22;51462;51.422;5.514;2022-08-19T11:28:47;23.30;99.90
24226;DHT22;51462;51.422;5.514;2022-08-19T11:31:15;23.30;99.90
24226;DHT22;51462;51.422;5.514;2022-08-19T11:33:41;23.40;99.90
24226;DHT22;51462;51.422;5.514;2022-08-19T11:36:06;23.50;99.90
24226;DHT22;51462;51.422;5.514;2022-08-19T11:38:33;23.60;99.90
24226;DHT22;51462;51.422;5.514;2022-08-19T11:41:01;23.60;99.90
24226;DHT22;51462;51.422;5.514;2022-08-19T11:43:27;23.80;99.90
24226;DHT22;51462;51.422;5.514;2022-08-19T11:45:54;23.80;99.90
24226;DHT22;51462;51.422;5.514;2022-08-19T11:48:21;23.60;99.90
24226;DHT22;51462;51.422;5.514;2022-08-19T11:50:51;23.70;99.90
24226;DHT22;51462;51.422;5.514;2022-08-19T11:53:19;23.80;99.90
24226;DHT22;51462;51.422;5.514;2022-08-19T11:55:46;23.80;99.90
24226;DHT22;51462;51.422;5.514;2022-08-19T11:58:13;23.80;99.90
24226;DHT22;51462;51.422;5.514;2022-08-19T12:00:40;23.90;99.90
24226;DHT22;51462;51.422;5.514;2022-08-19T12:03:06;24.30;99.90
24226;DHT22;51462;51.422;5.514;2022-08-19T12:05:31;24.20;99.90
24226;DHT22;51462;51.422;5.514;2022-08-19T12:07:57;23.90;99.90
24226;DHT22;51462;51.422;5.514;2022-08-19T12:10:23;23.90;99.90
24226;DHT22;51462;51.422;5.514;2022-08-19T12:12:49;23.90;99.90
24226;DHT22;51462;51.422;5.514;2022-08-19T12:15:14;23.90;99.90
24226;DHT22;51462;51.422;5.514;2022-08-19T12:17:41;23.90;99.90
24226;DHT22;51462;51.422;5.514;2022-08-19T12:20:09;23.80;99.90
24226;DHT22;51462;51.422;5.514;2022-08-19T12:22:36;23.70;99.90
24226;DHT22;51462;51.422;5.514;2022-08-19T12:25:04;23.80;99.90
24226;DHT22;51462;51.422;5.514;2022-08-19T12:27:30;23.90;99.90
24226;DHT22;51462;51.422;5.514;2022-08-19T12:29:55;24.10;99.90
24226;DHT22;51462;51.422;5.514;2022-08-19T12:32:21;24.10;99.90
24226;DHT22;51462;51.422;5.514;2022-08-19T12:34:46;24.10;99.90
24226;DHT22;51462;51.422;5.514;2022-08-19T12:37:13;23.90;99.90
24226;DHT22;51462;51.422;5.514;2022-08-19T12:39:41;23.80;99.90
24226;DHT22;51462;51.422;5.514;2022-08-19T12:42:08;24.00;99.90
24226;DHT22;51462;51.422;5.514;2022-08-19T12:44:35;24.10;99.90
24226;DHT22;51462;51.422;5.514;2022-08-19T12:47:01;24.20;99.90
24226;DHT22;51462;51.422;5.514;2022-08-19T12:49:28;24.10;99.90
24226;DHT22;51462;51.422;5.514;2022-08-19T12:51:54;24.10;99.90
24226;DHT22;51462;51.422;5.514;2022-08-19T12:54:19;24.20;99.90
24226;DHT22;51462;51.422;5.514;2022-08-19T12:56:45;24.30;99.90
24226;DHT22;51462;51.422;5.514;2022-08-19T12:59:11;24.40;99.90
24226;DHT22;51462;51.422;5.514;2022-08-19T13:01:37;24.40;99.90
24226;DHT22;51462;51.422;5.514;2022-08-19T13:04:03;24.50;99.90
24226;DHT22;51462;51.422;5.514;2022-08-19T13:06:29;24.60;99.90
24226;DHT22;51462;51.422;5.514;2022-08-19T13:08:55;24.80;99.90
24226;DHT22;51462;51.422;5.514;2022-08-19T13:11:22;24.90;99.90
24226;DHT22;51462;51.422;5.514;2022-08-19T13:13:50;25.20;99.90
24226;DHT22;51462;51.422;5.514;2022-08-19T13:16:16;25.50;99.90
24226;DHT22;51462;51.422;5.514;2022-08-19T13:18:44;25.50;99.90
24226;DHT22;51462;51.422;5.514;2022-08-19T13:21:12;25.60;99.90
24226;DHT22;51462;51.422;5.514;2022-08-19T13:23:39;25.80;99.90
24226;DHT22;51462;51.422;5.514;2022-08-19T13:26:07;26.00;99.90
24226;DHT22;51462;51.422;5.514;2022-08-19T13:28:33;26.00;99.90
24226;DHT22;51462;51.422;5.514;2022-08-19T13:31:19;26.60;99.90
24226;DHT22;51462;51.422;5.514;2022-08-19T13:34:04;26.30;99.90
24226;DHT22;51462;51.422;5.514;2022-08-19T13:36:33;26.40;99.90
24226;DHT22;51462;51.422;5.514;2022-08-19T13:38:59;26.50;99.90
24226;DHT22;51462;51.422;5.514;2022-08-19T13:41:26;26.90;99.90
24226;DHT22;51462;51.422;5.514;2022-08-19T13:43:52;26.90;99.90
24226;DHT22;51462;51.422;5.514;2022-08-19T13:46:18;26.90;99.90
24226;DHT22;51462;51.422;5.514;2022-08-19T13:48:45;27.10;99.90
24226;DHT22;51462;51.422;5.514;2022-08-19T13:51:11;27.90;99.90
24226;DHT22;51462;51.422;5.514;2022-08-19T13:53:37;28.30;99.90
24226;DHT22;51462;51.422;5.514;2022-08-19T13:56:11;28.70;99.90
24226;DHT22;51462;51.422;5.514;2022-08-19T13:58:37;28.10;99.90
24226;DHT22;51462;51.422;5.514;2022-08-19T14:01:04;28.70;99.90
24226;DHT22;51462;51.422;5.514;2022-08-19T14:03:31;29.00;99.90
24226;DHT22;51462;51.422;5.514;2022-08-19T14:05:56;29.60;99.90
24226;DHT22;51462;51.422;5.514;2022-08-19T14:08:22;29.20;99.90
24226;DHT22;51462;51.422;5.514;2022-08-19T14:10:48;29.10;99.90
24226;DHT22;51462;51.422;5.514;2022-08-19T14:13:19;29.90;99.90
24226;DHT22;51462;51.422;5.514;2022-08-19T14:15:45;30.10;99.90
24226;DHT22;51462;51.422;5.514;2022-08-19T14:18:12;29.10;99.90
24226;DHT22;51462;51.422;5.514;2022-08-19T14:20:38;29.50;99.90
24226;DHT22;51462;51.422;5.514;2022-08-19T14:23:04;29.90;99.90
24226;DHT22;51462;51.422;5.514;2022-08-19T14:25:32;29.20;99.90
24226;DHT22;51462;51.422;5.514;2022-08-19T14:27:59;28.60;99.90
24226;DHT22;51462;51.422;5.514;2022-08-19T14:30:29;28.60;99.90
24226;DHT22;51462;51.422;5.514;2022-08-19T14:32:56;28.60;99.90
24226;DHT22;51462;51.422;5.514;2022-08-19T14:35:23;28.50;99.90
24226;DHT22;51462;51.422;5.514;2022-08-19T14:37:50;28.20;99.90
24226;DHT22;51462;51.422;5.514;2022-08-19T14:40:19;28.10;99.90
24226;DHT22;51462;51.422;5.514;2022-08-19T14:42:46;28.20;99.90
24226;DHT22;51462;51.422;5.514;2022-08-19T14:45:14;28.20;99.90
24226;DHT22;51462;51.422;5.514;2022-08-19T14:47:39;27.60;99.90
24226;DHT22;51462;51.422;5.514;2022-08-19T14:50:09;27.80;99.90
24226;DHT22;51462;51.422;5.514;2022-08-19T14:52:35;28.00;99.90
24226;DHT22;51462;51.422;5.514;2022-08-19T14:55:02;27.70;99.90
24226;DHT22;51462;51.422;5.514;2022-08-19T14:57:28;27.90;99.90
24226;DHT22;51462;51.422;5.514;2022-08-19T14:59:53;27.60;99.90
24226;DHT22;51462;51.422;5.514;2022-08-19T15:02:19;27.40;99.90
24226;DHT22;51462;51.422;5.514;2022-08-19T15:04:45;27.70;99.90
24226;DHT22;51462;51.422;5.514;2022-08-19T15:07:11;27.80;99.90
24226;DHT22;51462;51.422;5.514;2022-08-19T15:09:37;27.20;99.90
24226;DHT22;51462;51.422;5.514;2022-08-19T15:12:05;27.20;99.90
24226;DHT22;51462;51.422;5.514;2022-08-19T15:14:31;27.10;99.90
24226;DHT22;51462;51.422;5.514;2022-08-19T15:17:03;26.90;99.90
24226;DHT22;51462;51.422;5.514;2022-08-19T15:19:30;26.70;99.90
24226;DHT22;51462;51.422;5.514;2022-08-19T15:21:56;26.80;99.90
24226;DHT22;51462;51.422;5.514;2022-08-19T15:24:21;26.60;99.90
24226;DHT22;51462;51.422;5.514;2022-08-19T15:26:48;26.70;99.90
24226;DHT22;51462;51.422;5.514;2022-08-19T15:29:14;26.60;99.90
24226;DHT22;51462;51.422;5.514;2022-08-19T15:31:41;26.60;99.90
24226;DHT22;51462;51.422;5.514;2022-08-19T15:34:07;26.40;99.90
24226;DHT22;51462;51.422;5.514;2022-08-19T15:36:32;26.50;99.90
24226;DHT22;51462;51.422;5.514;2022-08-19T15:39:00;26.80;99.90
24226;DHT22;51462;51.422;5.514;2022-08-19T15:41:27;27.00;99.90
24226;DHT22;51462;51.422;5.514;2022-08-19T15:44:00;26.90;99.90
24226;DHT22;51462;51.422;5.514;2022-08-19T15:46:30;27.00;99.90